Time;durP1;ratioP1;P1;durP2;ratioP2;P2;SDS_P1;SDS_P2;PMS_P1;PMS_P2;Temp;Humidity;BMP_temperature;BMP_pressure;BME280_temperature;BME280_humidity;BME280_pressure;Samples;Min_cycle;Max_cycle;Signal;HPM_P1;HPM_P2
2022/11/14 00:02:02;;;;;;;14.33;12.63;;;;;;;2.24;100.00;100160.31;5028607;27;20695;-68
2022/11/14 00:04:27;;;;;;;13.90;11.93;;;;;;;2.28;100.00;100159.38;5050761;28;20200;-61
2022/11/14 00:06:52;;;;;;;13.60;11.27;;;;;;;2.23;100.00;100156.94;5049833;28;20184;-61
2022/11/14 00:09:18;;;;;;;14.23;12.00;;;;;;;2.14;100.00;100152.03;5051800;28;20703;-62
2022/11/14 00:11:43;;;;;;;14.40;12.20;;;;;;;2.14;100.00;100151.19;5041717;28;20232;-61
2022/11/14 00:14:09;;;;;;;12.60;11.20;;;;;;;2.06;100.00;100153.84;5051270;28;20316;-62
2022/11/14 00:16:35;;;;;;;14.50;13.00;;;;;;;2.14;100.00;100156.28;5023146;28;20228;-63
2022/11/14 00:19:00;;;;;;;15.23;12.87;;;;;;;2.25;100.00;100154.38;5051652;28;20216;-62
2022/11/14 00:21:26;;;;;;;16.13;12.53;;;;;;;2.41;100.00;100158.28;5040383;28;20631;-62
2022/11/14 00:23:51;;;;;;;13.17;11.83;;;;;;;2.55;100.00;100155.44;5051849;28;20200;-63
2022/11/14 00:26:16;;;;;;;13.53;11.97;;;;;;;2.66;100.00;100151.88;5051255;28;20291;-63
2022/11/14 00:28:41;;;;;;;14.17;11.73;;;;;;;2.68;100.00;100155.19;5051419;28;20189;-63
2022/11/14 00:31:08;;;;;;;13.03;10.57;;;;;;;2.66;100.00;100149.31;5012275;28;20279;-61
2022/11/14 00:33:34;;;;;;;13.67;12.10;;;;;;;2.84;100.00;100146.41;5033500;28;20204;-62
2022/11/14 00:35:59;;;;;;;12.73;11.33;;;;;;;2.85;100.00;100153.16;5051579;28;20178;-61
2022/11/14 00:38:24;;;;;;;13.87;11.17;;;;;;;2.80;100.00;100156.66;5050797;28;20228;-62
2022/11/14 00:40:50;;;;;;;12.83;11.53;;;;;;;2.87;100.00;100148.84;5040655;28;20220;-62
2022/11/14 00:43:15;;;;;;;14.73;12.67;;;;;;;2.92;100.00;100148.75;5050616;28;20189;-62
2022/11/14 00:45:43;;;;;;;15.70;11.90;;;;;;;3.03;100.00;100146.81;5051507;28;20212;-62
2022/11/14 00:48:08;;;;;;;15.07;12.83;;;;;;;3.01;100.00;100142.63;5050834;28;20192;-62
2022/11/14 00:50:33;;;;;;;14.67;13.07;;;;;;;3.07;100.00;100147.56;5040553;28;20225;-62
2022/11/14 00:52:59;;;;;;;13.40;12.00;;;;;;;2.99;100.00;100147.75;5032558;28;20177;-62
2022/11/14 00:55:24;;;;;;;14.73;12.53;;;;;;;3.14;100.00;100143.19;5051025;28;20212;-61
2022/11/14 00:57:49;;;;;;;15.70;12.70;;;;;;;3.14;100.00;100143.19;5043603;28;20574;-62
2022/11/14 01:00:15;;;;;;;16.43;13.37;;;;;;;3.15;100.00;100148.25;5044768;28;20211;-63
2022/11/14 01:02:40;;;;;;;14.43;12.93;;;;;;;3.02;100.00;100139.22;5045668;28;20181;-62
2022/11/14 01:05:05;;;;;;;16.83;15.13;;;;;;;2.96;100.00;100147.81;5042159;28;20203;-62
2022/11/14 01:07:31;;;;;;;15.10;13.57;;;;;;;2.99;100.00;100136.75;5049890;28;20648;-62
2022/11/14 01:09:56;;;;;;;16.80;15.00;;;;;;;2.91;100.00;100139.47;5033049;28;20583;-64
2022/11/14 01:12:21;;;;;;;19.90;16.83;;;;;;;2.76;100.00;100133.00;5039172;28;20611;-62
2022/11/14 01:14:47;;;;;;;20.73;16.97;;;;;;;2.67;100.00;100134.03;5051391;28;20671;-62
2022/11/14 01:17:12;;;;;;;18.93;16.70;;;;;;;2.64;100.00;100140.91;5050474;28;20666;-62
2022/11/14 01:19:40;;;;;;;22.80;19.60;;;;;;;2.64;100.00;100136.66;5051261;28;20184;-61
2022/11/14 01:22:05;;;;;;;21.37;19.07;;;;;;;2.62;100.00;100145.16;5039074;28;20220;-62
2022/11/14 01:24:32;;;;;;;24.53;19.97;;;;;;;2.72;100.00;100141.56;5051182;28;20226;-62
2022/11/14 01:26:57;;;;;;;32.93;20.60;;;;;;;2.77;100.00;100137.22;5032287;28;20180;-62
2022/11/14 01:29:23;;;;;;;39.70;22.73;;;;;;;2.81;100.00;100140.53;5050973;28;20178;-61
2022/11/14 01:31:48;;;;;;;36.20;22.43;;;;;;;2.82;100.00;100147.28;5039708;28;20669;-62
2022/11/14 01:34:13;;;;;;;63.90;25.40;;;;;;;2.82;100.00;100137.97;5050608;28;20204;-62
2022/11/14 01:36:39;;;;;;;80.07;25.77;;;;;;;2.82;100.00;100144.75;5050406;28;20668;-62
2022/11/14 01:39:04;;;;;;;75.37;25.03;;;;;;;2.94;100.00;100136.00;5051111;28;20235;-62
2022/11/14 01:41:29;;;;;;;110.20;26.80;;;;;;;3.01;100.00;100133.28;5040134;28;20228;-61
2022/11/14 01:43:55;;;;;;;82.03;24.83;;;;;;;2.89;100.00;100142.03;5050538;28;20581;-61
2022/11/14 01:46:34;;;;;;;94.50;25.20;;;;;;;2.95;100.00;100125.81;5032538;28;20226;-62
2022/11/14 01:49:25;;;;;;;173.67;26.43;;;;;;;2.99;100.00;100126.56;5032743;28;20255;-61
2022/11/14 01:52:00;;;;;;;111.47;24.53;;;;;;;3.01;100.00;100120.59;5021610;28;20675;-62
2022/11/14 01:54:33;;;;;;;171.10;28.53;;;;;;;3.19;100.00;100110.88;5022948;28;21027;-61
2022/11/14 01:57:01;;;;;;;83.60;25.03;;;;;;;3.20;100.00;100107.44;5053891;28;20187;-61
2022/11/14 01:59:38;;;;;;;136.27;27.33;;;;;;;3.19;100.00;100106.63;5041272;28;20243;-63
2022/11/14 02:02:09;;;;;;;101.73;25.50;;;;;;;2.94;100.00;100105.50;5032984;28;20217;-62
2022/11/14 02:04:40;;;;;;;91.97;26.60;;;;;;;3.18;100.00;100097.31;5032567;28;20224;-61
2022/11/14 02:07:07;;;;;;;106.67;27.80;;;;;;;3.25;100.00;100090.41;5020785;28;20199;-62
2022/11/14 02:09:37;;;;;;;67.80;27.87;;;;;;;3.24;100.00;100086.19;5032688;28;20177;-62
2022/11/14 02:12:06;;;;;;;77.83;26.67;;;;;;;3.27;100.00;100083.56;5025874;28;20221;-62
2022/11/14 02:14:33;;;;;;;104.23;27.93;;;;;;;3.31;100.00;100084.31;5032398;28;20201;-63
2022/11/14 02:16:58;;;;;;;110.47;27.50;;;;;;;3.28;100.00;100080.13;5032165;28;20181;-61
2022/11/14 02:19:23;;;;;;;120.07;27.83;;;;;;;3.43;100.00;100083.19;5054444;28;20219;-62
2022/11/14 02:21:49;;;;;;;118.33;27.73;;;;;;;3.38;100.00;100076.47;5042756;28;20247;-61
2022/11/14 02:24:14;;;;;;;249.30;32.40;;;;;;;3.48;100.00;100078.81;5053711;28;20179;-62
2022/11/14 02:26:41;;;;;;;416.30;35.70;;;;;;;3.62;100.00;100086.94;5053835;28;20275;-62
2022/11/14 02:29:08;;;;;;;281.93;33.27;;;;;;;3.72;100.00;100075.63;5054222;28;20193;-63
2022/11/14 02:31:33;;;;;;;97.57;28.37;;;;;;;3.54;100.00;100076.94;5025437;28;20558;-61
2022/11/14 02:33:59;;;;;;;89.53;25.10;;;;;;;3.59;100.00;100076.81;5053438;28;20220;-62
2022/11/14 02:36:25;;;;;;;140.20;29.40;;;;;;;3.67;100.00;100071.53;5052936;28;20204;-62
2022/11/14 02:38:50;;;;;;;236.30;32.27;;;;;;;3.65;100.00;100075.84;5035402;28;20244;-61
2022/11/14 02:41:15;;;;;;;123.33;28.03;;;;;;;3.56;100.00;100074.38;5043071;28;20286;-62
2022/11/14 02:43:41;;;;;;;197.60;30.57;;;;;;;3.58;100.00;100067.50;5023833;28;20237;-62
2022/11/14 02:46:06;;;;;;;130.80;26.20;;;;;;;3.63;100.00;100068.22;5053411;28;20177;-62
2022/11/14 02:48:31;;;;;;;83.40;25.93;;;;;;;3.54;100.00;100071.84;5052098;28;20181;-63
2022/11/14 02:50:57;;;;;;;105.13;27.13;;;;;;;3.42;100.00;100063.72;5042340;28;20227;-62
2022/11/14 02:53:22;;;;;;;72.23;27.50;;;;;;;3.40;100.00;100071.38;5052932;28;20176;-61
2022/11/14 02:55:47;;;;;;;136.27;26.27;;;;;;;3.44;100.00;100059.44;5053525;28;20181;-64
2022/11/14 02:58:12;;;;;;;81.07;26.47;;;;;;;3.38;100.00;100053.59;5059891;28;20617;-63
2022/11/14 03:00:38;;;;;;;188.63;31.90;;;;;;;3.57;100.00;100049.75;5048199;28;20229;-63
2022/11/14 03:03:03;;;;;;;77.07;25.53;;;;;;;3.42;100.00;100061.16;5052741;28;20177;-62
2022/11/14 03:05:28;;;;;;;124.80;27.27;;;;;;;3.46;100.00;100055.13;5035496;28;20182;-62
2022/11/14 03:07:55;;;;;;;96.67;26.77;;;;;;;3.41;100.00;100050.13;5052948;28;20552;-62
2022/11/14 03:10:22;;;;;;;60.13;24.70;;;;;;;3.57;100.00;100058.22;5024723;28;20212;-61
2022/11/14 03:12:53;;;;;;;110.37;26.23;;;;;;;3.51;100.00;100043.97;5039363;28;20201;-63
2022/11/14 03:15:18;;;;;;;117.53;27.33;;;;;;;3.74;100.00;100039.13;5029865;28;20201;-63
2022/11/14 03:17:43;;;;;;;143.43;28.13;;;;;;;3.77;100.00;100033.94;5052991;28;20201;-63
2022/11/14 03:20:09;;;;;;;68.63;24.90;;;;;;;3.73;100.00;100035.75;5042520;28;20251;-62
2022/11/14 03:22:34;;;;;;;113.73;26.53;;;;;;;3.75;100.00;100031.47;5052068;28;20197;-62
2022/11/14 03:25:00;;;;;;;49.87;26.30;;;;;;;3.75;100.00;100031.47;5034636;28;20540;-62
2022/11/14 03:27:25;;;;;;;42.57;24.77;;;;;;;3.69;100.00;100032.44;5034673;28;20220;-62
2022/11/14 03:29:50;;;;;;;56.27;24.93;;;;;;;3.72;100.00;100024.75;5051792;28;20176;-62
2022/11/14 03:32:15;;;;;;;66.07;24.13;;;;;;;3.66;100.00;100021.50;5024821;28;20221;-62
2022/11/14 03:34:41;;;;;;;77.30;26.67;;;;;;;3.81;100.00;100017.75;5052758;28;20241;-62
2022/11/14 03:37:07;;;;;;;98.10;25.87;;;;;;;3.85;100.00;100016.78;5034269;28;20213;-63
2022/11/14 03:39:32;;;;;;;123.23;26.87;;;;;;;3.84;100.00;100015.09;5034707;28;20177;-63
2022/11/14 03:41:57;;;;;;;191.00;29.23;;;;;;;3.90;100.00;100022.56;5041239;28;20221;-63
2022/11/14 03:44:23;;;;;;;99.20;27.07;;;;;;;3.78;100.00;100018.63;5052337;28;20191;-62
2022/11/14 03:46:48;;;;;;;73.03;25.87;;;;;;;3.81;100.00;100018.56;5051286;28;20177;-63
2022/11/14 03:49:13;;;;;;;97.33;27.10;;;;;;;3.70;100.00;100015.50;5052416;28;20676;-63
2022/11/14 03:51:38;;;;;;;84.93;26.57;;;;;;;3.65;100.00;100023.25;5028170;28;20218;-65
2022/11/14 03:54:04;;;;;;;132.70;28.73;;;;;;;3.68;100.00;100018.09;5048765;28;20201;-62
2022/11/14 03:56:29;;;;;;;160.07;29.80;;;;;;;3.72;100.00;100017.13;5051728;28;20542;-65
2022/11/14 03:58:54;;;;;;;85.87;28.07;;;;;;;3.78;100.00;100007.63;5064813;28;20177;-63
2022/11/14 04:01:20;;;;;;;111.90;28.53;;;;;;;3.75;100.00;100000.94;5041524;28;20715;-63
2022/11/14 04:03:45;;;;;;;59.03;27.40;;;;;;;3.69;100.00;100003.63;5051451;28;20181;-62
2022/11/14 04:06:10;;;;;;;60.17;27.73;;;;;;;3.64;100.00;100015.66;5051887;28;20207;-65
2022/11/14 04:08:38;;;;;;;52.10;26.50;;;;;;;3.68;100.00;100013.00;5052003;28;20181;-62
2022/11/14 04:11:03;;;;;;;41.67;27.47;;;;;;;3.60;100.00;100016.59;5045478;28;20331;-63
2022/11/14 04:13:28;;;;;;;40.63;25.57;;;;;;;3.67;100.00;100016.41;5051204;28;20299;-62
2022/11/14 04:15:57;;;;;;;41.07;25.20;;;;;;;3.64;100.00;100006.31;5041125;28;20244;-62
2022/11/14 04:18:23;;;;;;;41.93;26.67;;;;;;;3.80;100.00;100006.72;5021373;28;20231;-63
2022/11/14 04:20:49;;;;;;;43.13;25.97;;;;;;;3.90;100.00;100011.56;5023721;28;20225;-62
2022/11/14 04:23:15;;;;;;;42.20;25.33;;;;;;;3.77;100.00;100009.34;5034018;28;20192;-63
2022/11/14 04:25:42;;;;;;;46.67;25.93;;;;;;;3.81;100.00;100007.56;5051679;28;20200;-64
2022/11/14 04:28:08;;;;;;;49.13;24.87;;;;;;;3.92;100.00;100009.78;5033273;28;20174;-63
2022/11/14 04:30:33;;;;;;;43.03;25.70;;;;;;;3.83;100.00;99999.00;5020903;28;20277;-63
2022/11/14 04:32:58;;;;;;;45.20;25.97;;;;;;;4.02;100.00;99994.22;5032837;28;20165;-63
2022/11/14 04:35:24;;;;;;;38.17;24.57;;;;;;;3.91;100.00;99993.69;5051569;28;20217;-62
2022/11/14 04:37:49;;;;;;;34.10;22.87;;;;;;;4.08;100.00;99997.47;5051042;28;20571;-62
2022/11/14 04:40:14;;;;;;;39.00;24.83;;;;;;;4.10;100.00;99991.44;5040857;28;20260;-63
2022/11/14 04:42:39;;;;;;;39.57;25.33;;;;;;;4.05;100.00;99990.75;5019827;28;20177;-64
2022/11/14 04:45:06;;;;;;;32.60;23.23;;;;;;;4.10;100.00;99998.25;5051005;28;20327;-63
2022/11/14 04:47:31;;;;;;;29.70;23.20;;;;;;;4.12;100.00;99979.50;5033035;28;20173;-62
2022/11/14 04:49:56;;;;;;;32.93;22.43;;;;;;;3.86;100.00;99986.19;5051678;28;20620;-63
2022/11/14 04:52:22;;;;;;;32.23;22.53;;;;;;;4.22;100.00;99982.63;5040167;28;20228;-63
2022/11/14 04:54:47;;;;;;;33.73;22.77;;;;;;;4.29;100.00;99981.56;5051344;28;20516;-63
2022/11/14 04:57:13;;;;;;;28.87;22.33;;;;;;;4.27;100.00;99983.31;5056045;28;20620;-63
2022/11/14 04:59:38;;;;;;;31.57;22.27;;;;;;;4.31;100.00;99982.31;5058431;28;20271;-63
2022/11/14 05:02:03;;;;;;;32.23;22.30;;;;;;;4.28;100.00;99979.03;5046993;28;20220;-63
2022/11/14 05:04:29;;;;;;;31.83;21.63;;;;;;;4.10;100.00;99971.06;5051141;28;20211;-63
2022/11/14 05:06:54;;;;;;;32.17;21.77;;;;;;;4.18;100.00;99975.94;5032765;28;20177;-63
2022/11/14 05:09:19;;;;;;;30.67;22.80;;;;;;;4.10;100.00;99972.78;5051292;28;20534;-63
2022/11/14 05:11:53;;;;;;;32.87;23.23;;;;;;;3.98;100.00;99976.53;5043708;28;20221;-62
2022/11/14 05:14:18;;;;;;;30.70;22.60;;;;;;;4.12;100.00;99973.56;5050830;28;20240;-63
2022/11/14 05:16:44;;;;;;;29.80;21.83;;;;;;;4.08;100.00;99970.31;5050085;28;20621;-63
2022/11/14 05:19:09;;;;;;;33.73;23.40;;;;;;;4.12;100.00;99964.22;5050674;28;20186;-63
2022/11/14 05:21:34;;;;;;;32.37;23.03;;;;;;;4.03;100.00;99965.34;5039917;28;20228;-63
2022/11/14 05:23:59;;;;;;;29.30;21.00;;;;;;;4.13;100.00;99963.34;5050768;28;20234;-63
2022/11/14 05:26:25;;;;;;;33.47;24.23;;;;;;;4.10;100.00;99958.34;5050519;28;20181;-63
2022/11/14 05:28:50;;;;;;;29.67;22.80;;;;;;;4.10;100.00;99967.72;5050653;28;20186;-63
2022/11/14 05:31:16;;;;;;;33.10;22.90;;;;;;;3.98;100.00;99969.75;5039876;28;20643;-62
2022/11/14 05:33:45;;;;;;;36.27;22.60;;;;;;;3.94;100.00;99975.78;5032918;28;20660;-64
2022/11/14 05:36:13;;;;;;;38.10;24.23;;;;;;;4.00;100.00;99974.78;5032722;28;20577;-62
2022/11/14 05:38:39;;;;;;;33.37;23.87;;;;;;;4.02;100.00;99961.13;5050570;28;20229;-63
2022/11/14 05:41:10;;;;;;;35.00;22.23;;;;;;;4.08;100.00;99956.72;5039099;28;20216;-63
2022/11/14 05:43:36;;;;;;;31.77;22.43;;;;;;;4.08;100.00;99954.19;5028180;28;20178;-64
2022/11/14 05:46:04;;;;;;;35.80;24.30;;;;;;;4.01;100.00;99945.91;5051190;28;20653;-62
2022/11/14 05:48:30;;;;;;;33.97;25.33;;;;;;;4.03;100.00;99949.22;5032385;28;20181;-63
2022/11/14 05:50:58;;;;;;;38.17;25.37;;;;;;;3.86;100.00;99955.66;5022332;28;20775;-63
2022/11/14 05:53:26;;;;;;;40.00;25.43;;;;;;;3.94;100.00;99947.78;5052708;28;20174;-63
2022/11/14 05:55:51;;;;;;;34.37;24.40;;;;;;;4.00;100.00;99944.22;5036548;28;20679;-63
2022/11/14 05:58:17;;;;;;;37.07;24.50;;;;;;;4.01;100.00;99943.34;5048542;28;20212;-64
2022/11/14 06:00:42;;;;;;;32.37;23.90;;;;;;;3.94;100.00;99947.78;5049666;28;20278;-64
2022/11/14 06:03:08;;;;;;;33.13;24.43;;;;;;;4.00;100.00;99952.69;5058601;28;20269;-63
2022/11/14 06:05:34;;;;;;;32.53;24.03;;;;;;;3.93;100.00;99956.31;5054781;28;20181;-63
2022/11/14 06:08:00;;;;;;;33.20;23.70;;;;;;;3.87;100.00;99954.78;5035877;28;20275;-62
2022/11/14 06:10:25;;;;;;;32.43;23.57;;;;;;;3.86;100.00;99952.28;5009018;28;20221;-63
2022/11/14 06:12:51;;;;;;;29.30;22.97;;;;;;;3.85;100.00;99948.88;5058003;28;20185;-63
2022/11/14 06:15:16;;;;;;;27.70;21.17;;;;;;;3.73;100.00;99949.25;5054491;28;20228;-63
2022/11/14 06:17:41;;;;;;;28.70;21.43;;;;;;;3.85;100.00;99956.53;5053803;28;20192;-64
2022/11/14 06:20:08;;;;;;;26.20;20.43;;;;;;;3.72;100.00;99970.47;5043775;28;20180;-65
2022/11/14 06:22:34;;;;;;;27.03;20.77;;;;;;;3.73;100.00;99967.06;5036090;28;20322;-63
2022/11/14 06:25:00;;;;;;;25.53;20.17;;;;;;;3.82;100.00;99964.25;5054022;28;20173;-63
2022/11/14 06:27:25;;;;;;;25.53;19.90;;;;;;;3.66;100.00;99963.84;5035878;28;20277;-63
2022/11/14 06:29:50;;;;;;;23.03;19.40;;;;;;;3.55;100.00;99969.22;5054348;28;20292;-63
2022/11/14 06:32:16;;;;;;;24.53;19.80;;;;;;;3.51;100.00;99965.13;5041971;28;20243;-62
2022/11/14 06:34:41;;;;;;;23.93;20.47;;;;;;;3.63;100.00;99958.84;5053966;28;20287;-63
2022/11/14 06:37:06;;;;;;;24.30;20.07;;;;;;;3.75;100.00;99961.94;5053011;28;20212;-61
2022/11/14 06:39:31;;;;;;;29.50;20.73;;;;;;;3.56;100.00;99962.47;5053255;28;20678;-62
2022/11/14 06:41:57;;;;;;;27.60;20.33;;;;;;;3.52;100.00;99958.31;5025294;28;20225;-63
2022/11/14 06:44:22;;;;;;;25.90;19.97;;;;;;;3.67;100.00;99954.50;5053625;28;20178;-63
2022/11/14 06:46:48;;;;;;;27.73;20.53;;;;;;;3.78;100.00;99949.94;5053369;28;20299;-62
2022/11/14 06:49:13;;;;;;;29.73;21.37;;;;;;;3.93;100.00;99948.69;5053896;28;20681;-63
2022/11/14 06:51:40;;;;;;;33.03;21.37;;;;;;;3.90;100.00;99943.66;5042995;28;20344;-63
2022/11/14 06:54:06;;;;;;;31.00;20.47;;;;;;;3.98;100.00;99943.44;5035133;28;20250;-65
2022/11/14 06:56:31;;;;;;;29.93;20.63;;;;;;;3.97;100.00;99941.75;5034081;28;20189;-62
2022/11/14 06:58:56;;;;;;;24.53;19.50;;;;;;;4.00;100.00;99936.59;5054842;28;20174;-62
2022/11/14 07:01:24;;;;;;;27.07;20.57;;;;;;;3.96;100.00;99938.41;5025616;28;20681;-62
2022/11/14 07:03:50;;;;;;;24.83;19.63;;;;;;;4.10;100.00;99937.16;5031278;28;20174;-62
2022/11/14 07:06:24;;;;;;;24.10;19.70;;;;;;;3.95;100.00;99946.91;5051935;28;20585;-65
2022/11/14 07:08:54;;;;;;;27.13;21.33;;;;;;;3.89;100.00;99934.38;5034547;28;20203;-62
2022/11/14 07:11:22;;;;;;;31.97;21.30;;;;;;;3.95;100.00;99936.72;5022542;28;20213;-62
2022/11/14 07:13:52;;;;;;;29.87;21.47;;;;;;;4.13;100.00;99934.50;5034535;28;20295;-62
2022/11/14 07:16:18;;;;;;;30.17;22.03;;;;;;;4.29;100.00;99935.72;5031814;28;20246;-68
2022/11/14 07:18:44;;;;;;;27.90;20.87;;;;;;;4.38;100.00;99933.75;5034631;28;20182;-62
2022/11/14 07:21:12;;;;;;;29.37;20.07;;;;;;;4.25;100.00;99939.22;5041487;28;20573;-63
2022/11/14 07:23:38;;;;;;;28.17;20.07;;;;;;;4.50;100.00;99943.53;5035474;28;20204;-64
2022/11/14 07:26:08;;;;;;;26.83;20.60;;;;;;;4.48;100.00;99953.78;5033955;28;20647;-63
2022/11/14 07:28:35;;;;;;;30.37;20.20;;;;;;;4.69;100.00;99951.44;5033916;28;20177;-63
2022/11/14 07:31:05;;;;;;;28.03;19.53;;;;;;;4.44;100.00;99947.13;5023963;28;20226;-63
2022/11/14 07:33:31;;;;;;;26.13;19.80;;;;;;;4.35;100.00;99932.97;5034084;28;20634;-62
2022/11/14 07:35:56;;;;;;;30.57;20.27;;;;;;;4.40;100.00;99921.81;5052492;28;20181;-63
2022/11/14 07:38:21;;;;;;;31.80;21.97;;;;;;;4.31;100.00;99931.38;5051653;28;20227;-64
2022/11/14 07:40:53;;;;;;;30.27;19.87;;;;;;;4.31;100.00;99944.13;5041655;28;20220;-63
2022/11/14 07:43:19;;;;;;;28.20;19.90;;;;;;;4.31;100.00;99949.22;5032310;28;20197;-64
2022/11/14 07:45:44;;;;;;;27.00;18.23;;;;;;;4.55;100.00;99951.03;5052264;28;20195;-63
2022/11/14 07:48:10;;;;;;;23.93;17.47;;;;;;;4.49;100.00;99952.06;5032552;28;20269;-63
2022/11/14 07:50:35;;;;;;;32.00;19.67;;;;;;;4.49;100.00;99958.00;5040922;28;20304;-62
2022/11/14 07:53:00;;;;;;;32.20;20.53;;;;;;;4.81;100.00;99960.38;5034579;28;20732;-56
2022/11/14 07:55:25;;;;;;;25.93;20.00;;;;;;;5.04;100.00;99961.34;5050404;28;20676;-57
2022/11/14 07:57:53;;;;;;;27.63;19.10;;;;;;;5.19;100.00;99953.16;5056276;28;20201;-56
2022/11/14 08:00:18;;;;;;;24.57;19.23;;;;;;;5.26;100.00;99949.53;5034233;28;20265;-56
2022/11/14 08:02:45;;;;;;;23.87;19.13;;;;;;;5.39;100.00;99946.53;5051044;28;20772;-64
2022/11/14 08:05:10;;;;;;;28.17;20.33;;;;;;;5.12;100.00;99956.81;5033110;28;20301;-63
2022/11/14 08:07:35;;;;;;;23.20;18.37;;;;;;;5.14;100.00;99966.06;5051573;28;20188;-63
2022/11/14 08:10:01;;;;;;;20.83;18.00;;;;;;;5.26;100.00;99953.78;5052190;28;20180;-62
2022/11/14 08:12:26;;;;;;;26.80;18.90;;;;;;;5.00;100.00;99950.44;5048387;28;20268;-62
2022/11/14 08:14:51;;;;;;;24.30;18.70;;;;;;;5.04;100.00;99941.78;5050989;28;20332;-63
2022/11/14 08:17:16;;;;;;;31.10;19.40;;;;;;;5.08;100.00;99945.88;4995232;28;20273;-63
2022/11/14 08:19:42;;;;;;;26.87;17.67;;;;;;;4.94;100.00;99941.25;5051183;28;20207;-62
2022/11/14 08:22:07;;;;;;;27.63;18.20;;;;;;;5.24;100.00;99953.84;5038870;28;20268;-64
2022/11/14 08:24:32;;;;;;;21.03;16.60;;;;;;;5.30;100.00;99945.97;5044341;28;20181;-62
2022/11/14 08:26:58;;;;;;;26.47;16.77;;;;;;;5.22;100.00;99942.03;5051021;28;20215;-62
2022/11/14 08:29:24;;;;;;;18.90;16.70;;;;;;;5.11;100.00;99955.13;5051598;28;20175;-62
2022/11/14 08:31:49;;;;;;;28.57;17.30;;;;;;;5.11;100.00;99947.50;5019713;28;20219;-63
2022/11/14 08:34:14;;;;;;;20.40;16.53;;;;;;;5.15;100.00;99947.34;5049930;28;20210;-62
2022/11/14 08:36:39;;;;;;;24.67;17.73;;;;;;;5.26;100.00;99961.44;5051046;28;20184;-63
2022/11/14 08:39:05;;;;;;;25.60;17.80;;;;;;;5.31;100.00;99954.47;5051361;28;20618;-61
2022/11/14 08:41:33;;;;;;;21.60;17.53;;;;;;;5.20;100.00;99956.53;5040915;28;20220;-61
2022/11/14 08:43:58;;;;;;;22.83;20.33;;;;;;;5.26;100.00;99961.44;5032588;28;20428;-62
2022/11/14 08:46:23;;;;;;;24.03;17.53;;;;;;;5.07;100.00;99964.59;5050910;28;20299;-62
2022/11/14 08:48:49;;;;;;;21.53;18.27;;;;;;;5.22;100.00;99959.88;5050790;28;20666;-62
2022/11/14 08:51:14;;;;;;;23.10;19.00;;;;;;;5.44;100.00;99952.31;5040306;28;20678;-62
2022/11/14 08:53:39;;;;;;;24.63;19.00;;;;;;;5.48;100.00;99957.25;5050757;28;20171;-62
2022/11/14 08:56:05;;;;;;;23.20;18.17;;;;;;;5.65;100.00;99955.81;5051263;28;20577;-62
2022/11/14 08:58:31;;;;;;;24.33;17.83;;;;;;;5.34;100.00;99951.81;5057332;28;20191;-62
2022/11/14 09:01:01;;;;;;;20.37;16.63;;;;;;;5.24;100.00;99955.56;5038109;28;20217;-63
2022/11/14 09:03:26;;;;;;;22.30;17.67;;;;;;;5.23;100.00;99954.72;5032897;28;20539;-61
2022/11/14 09:05:52;;;;;;;22.97;16.63;;;;;;;5.06;100.00;99957.88;5051160;28;20183;-61
2022/11/14 09:08:17;;;;;;;22.47;18.20;;;;;;;5.09;100.00;99965.41;5049911;28;20200;-62
2022/11/14 09:10:42;;;;;;;26.57;18.07;;;;;;;5.34;100.00;99972.22;5042288;28;20223;-60
2022/11/14 09:13:08;;;;;;;26.80;18.97;;;;;;;5.23;100.00;99976.84;5050950;28;20183;-64
2022/11/14 09:15:33;;;;;;;24.23;17.13;;;;;;;5.36;100.00;99975.53;5051122;28;20229;-62
2022/11/14 09:17:58;;;;;;;21.40;18.20;;;;;;;5.60;100.00;99967.91;5050449;28;20952;-60
2022/11/14 09:20:24;;;;;;;23.53;17.73;;;;;;;5.55;100.00;99957.84;5037288;28;20231;-63
2022/11/14 09:22:52;;;;;;;19.33;16.57;;;;;;;5.35;100.00;99961.13;5017074;28;20255;-62
2022/11/14 09:25:18;;;;;;;25.70;18.83;;;;;;;5.28;100.00;99952.00;5051039;28;20224;-63
2022/11/14 09:27:43;;;;;;;24.73;19.57;;;;;;;5.31;100.00;99947.63;5033083;28;20657;-63
2022/11/14 09:30:10;;;;;;;23.50;18.97;;;;;;;5.44;100.00;99939.56;5044118;28;20654;-62
2022/11/14 09:32:35;;;;;;;22.50;18.70;;;;;;;5.56;100.00;99936.56;5052669;28;20192;-62
2022/11/14 09:35:00;;;;;;;24.13;19.17;;;;;;;5.63;100.00;99935.44;5013558;28;20214;-62
2022/11/14 09:37:26;;;;;;;23.77;18.70;;;;;;;5.62;100.00;99927.88;5053695;28;20363;-63
2022/11/14 09:39:51;;;;;;;25.10;19.10;;;;;;;5.77;100.00;99932.38;5054719;28;20190;-62
2022/11/14 09:42:38;;;;;;;27.07;20.27;;;;;;;5.93;100.00;99955.63;5041888;28;20239;-62
2022/11/14 09:45:13;;;;;;;27.00;20.33;;;;;;;6.01;100.00;99942.59;5036387;28;20939;-63
2022/11/14 09:47:51;;;;;;;24.07;18.23;;;;;;;6.26;100.00;99932.28;5054411;28;20569;-62
2022/11/14 09:50:24;;;;;;;25.00;19.80;;;;;;;6.28;100.00;99937.31;5043424;28;20794;-64
2022/11/14 09:52:56;;;;;;;24.07;19.37;;;;;;;6.44;100.00;99932.44;5036545;28;20717;-63
2022/11/14 09:55:33;;;;;;;22.20;19.17;;;;;;;6.68;100.00;99929.78;5053782;28;20243;-63
2022/11/14 09:58:00;;;;;;;28.07;19.03;;;;;;;6.82;100.00;99936.88;5059266;28;20185;-61
2022/11/14 10:00:37;;;;;;;26.17;18.77;;;;;;;6.77;100.00;99939.59;5044948;28;20667;-60
2022/11/14 10:03:15;;;;;;;21.93;18.00;;;;;;;6.49;100.00;99938.19;5053213;28;20208;-64
2022/11/14 10:05:49;;;;;;;23.57;18.93;;;;;;;6.34;100.00;99937.06;5036502;28;20275;-62
2022/11/14 10:08:26;;;;;;;25.20;19.53;;;;;;;6.39;100.00;99931.78;5035546;28;20188;-62
2022/11/14 10:11:03;;;;;;;28.17;21.10;;;;;;;6.56;100.00;99938.75;5028555;28;20251;-63
2022/11/14 10:14:02;;;;;;;21.07;18.17;;;;;;;7.07;100.00;99931.53;5045253;28;20189;-60
2022/11/14 10:16:48;;;;;;;18.23;15.97;;;;;;;6.82;100.00;99922.34;5034589;28;20193;-62
2022/11/14 10:19:34;;;;;;;20.27;17.10;;;;;;;6.73;100.00;99913.31;5035686;28;20191;-62
2022/11/14 10:22:25;;;;;;;21.03;17.97;;;;;;;6.94;100.00;99916.72;5042348;28;20220;-62
2022/11/14 10:25:00;;;;;;;20.70;16.83;;;;;;;7.21;100.00;99905.38;5036474;28;20545;-62
2022/11/14 10:27:31;;;;;;;21.13;17.90;;;;;;;7.56;100.00;99895.31;5053544;28;20337;-63
2022/11/14 10:30:02;;;;;;;20.40;16.40;;;;;;;7.85;100.00;99900.81;5035250;28;20184;-61
2022/11/14 10:32:48;;;;;;;18.80;16.70;;;;;;;7.95;100.00;99898.66;5008560;28;20223;-60
2022/11/14 10:35:19;;;;;;;19.03;16.63;;;;;;;7.99;100.00;99901.00;5047610;28;20211;-61
2022/11/14 10:38:04;;;;;;;19.33;15.83;;;;;;;7.99;100.00;99915.53;5035325;28;20229;-60
2022/11/14 10:40:51;;;;;;;17.53;15.17;;;;;;;7.76;100.00;99907.19;5025185;28;20217;-61
2022/11/14 10:43:26;;;;;;;19.63;15.40;;;;;;;7.88;100.00;99895.56;5034536;28;20266;-61
2022/11/14 10:46:02;;;;;;;16.97;14.70;;;;;;;7.58;100.00;99893.50;5035354;28;20482;-60
2022/11/14 10:48:32;;;;;;;17.93;15.47;;;;;;;7.82;100.00;99891.53;5034925;28;20257;-61
2022/11/14 10:51:02;;;;;;;16.93;14.70;;;;;;;7.98;100.00;99872.91;5025561;28;20255;-63
2022/11/14 10:53:30;;;;;;;17.23;14.97;;;;;;;7.77;100.00;99860.19;5035457;28;20208;-62
2022/11/14 10:55:57;;;;;;;21.63;16.17;;;;;;;7.79;100.00;99855.00;5053578;28;20627;-62
2022/11/14 10:58:22;;;;;;;18.20;15.77;;;;;;;7.63;100.00;99860.84;5061034;28;20742;-62
2022/11/14 11:00:48;;;;;;;21.00;16.33;;;;;;;7.76;100.00;99850.84;5031699;28;20224;-61
2022/11/14 11:03:14;;;;;;;16.97;14.73;;;;;;;7.63;100.00;99847.19;5052729;28;20184;-61
2022/11/14 11:05:59;;;;;;;17.97;14.67;;;;;;;7.84;100.00;99853.88;5054025;28;20526;-62
2022/11/14 11:11:30;;;;;;;16.50;14.67;;;;;;;8.15;100.00;99842.19;5046695;28;20718;-62
2022/11/14 11:13:59;;;;;;;18.33;15.37;;;;;;;8.23;100.00;99840.06;5052741;28;20243;-63
2022/11/14 11:16:27;;;;;;;18.13;14.50;;;;;;;8.08;100.00;99836.50;5034671;28;20174;-63